createdAt,value
2023-01-02T00:01:58.704Z,13.71
2023-01-02T00:04:25.212Z,13.69
2023-01-02T00:06:51.823Z,13.70
2023-01-02T00:09:20.000Z,13.70
2023-01-02T00:11:46.621Z,13.69
2023-01-02T00:14:13.192Z,13.71
2023-01-02T00:16:39.780Z,13.70
2023-01-02T00:19:08.569Z,13.62
2023-01-02T00:21:36.239Z,13.63
2023-01-02T00:24:02.778Z,13.62
2023-01-02T00:26:30.156Z,13.60
2023-01-02T00:28:56.728Z,13.51
2023-01-02T00:31:23.436Z,13.44
2023-01-02T00:33:49.986Z,13.45
2023-01-02T00:36:16.582Z,13.31
2023-01-02T00:38:43.184Z,13.25
2023-01-02T00:41:10.166Z,13.30
2023-01-02T00:43:36.912Z,13.16
2023-01-02T00:46:10.881Z,13.09
2023-01-02T00:48:38.420Z,13.08
2023-01-02T00:51:05.114Z,13.08
2023-01-02T00:53:31.612Z,13.12
2023-01-02T00:55:58.162Z,13.11
2023-01-02T00:58:24.666Z,13.10
2023-01-02T01:00:51.302Z,13.11
2023-01-02T01:03:17.928Z,13.11
2023-01-02T01:05:44.696Z,13.20
2023-01-02T01:08:11.307Z,13.17
2023-01-02T01:10:38.290Z,13.19
2023-01-02T01:13:05.443Z,13.20
2023-01-02T01:15:33.203Z,13.24
2023-01-02T01:17:59.785Z,13.22
2023-01-02T01:20:26.517Z,13.19
2023-01-02T01:22:53.119Z,13.20
2023-01-02T01:25:19.726Z,13.22
2023-01-02T01:27:46.319Z,13.21
2023-01-02T01:30:12.989Z,13.19
2023-01-02T01:32:39.562Z,13.15
2023-01-02T01:35:06.687Z,13.21
2023-01-02T01:37:33.314Z,13.15
2023-01-02T01:39:59.829Z,13.20
2023-01-02T01:42:32.630Z,13.19
2023-01-02T01:44:59.124Z,13.17
2023-01-02T01:47:39.841Z,13.20
2023-01-02T01:50:18.888Z,13.10
2023-01-02T01:53:13.843Z,13.17
2023-01-02T01:56:02.127Z,13.24
2023-01-02T01:58:54.762Z,13.21
2023-01-02T02:01:21.390Z,13.21
2023-01-02T02:03:49.691Z,13.24
2023-01-02T02:06:16.718Z,13.27
2023-01-02T02:08:57.511Z,13.26
2023-01-02T02:11:24.361Z,13.29
2023-01-02T02:13:50.990Z,13.30
2023-01-02T02:16:17.588Z,13.35
2023-01-02T02:19:07.378Z,13.36
2023-01-02T02:22:02.183Z,13.28
2023-01-02T02:24:50.051Z,13.25
2023-01-02T02:27:58.193Z,13.23
2023-01-02T02:30:34.894Z,13.28
2023-01-02T02:33:13.073Z,13.27
2023-01-02T02:36:18.878Z,13.25
2023-01-02T02:39:24.041Z,13.24
2023-01-02T02:42:14.297Z,13.29
2023-01-02T02:45:01.887Z,13.33
2023-01-02T02:47:34.821Z,13.24
2023-01-02T02:50:12.615Z,13.20
2023-01-02T02:52:46.734Z,13.26
2023-01-02T02:55:17.161Z,13.31
2023-01-02T02:57:44.863Z,13.29
2023-01-02T03:00:14.996Z,13.34
2023-01-02T03:02:41.641Z,13.37
2023-01-02T03:05:12.443Z,13.41
2023-01-02T03:07:46.851Z,13.45
2023-01-02T03:10:51.007Z,13.44
2023-01-02T03:13:40.826Z,13.47
2023-01-02T03:16:30.417Z,13.40
2023-01-02T03:19:10.994Z,13.38
2023-01-02T03:21:48.034Z,13.44
2023-01-02T03:24:16.840Z,13.58
2023-01-02T03:26:45.513Z,13.54
2023-01-02T03:29:30.385Z,13.71
2023-01-02T03:31:58.255Z,13.74
2023-01-02T03:34:27.343Z,13.84
2023-01-02T03:36:58.543Z,13.88
2023-01-02T03:39:28.536Z,13.89
2023-01-02T03:42:00.435Z,13.90
2023-01-02T03:44:34.783Z,13.92
2023-01-02T03:47:27.535Z,13.90
2023-01-02T03:49:54.883Z,13.80
2023-01-02T03:52:25.904Z,13.88
2023-01-02T03:54:54.058Z,13.91
2023-01-02T03:57:23.152Z,14.03
2023-01-02T04:00:00.518Z,13.98
2023-01-02T04:02:46.398Z,13.96
2023-01-02T04:05:28.807Z,14.05
2023-01-02T04:08:03.233Z,13.99
2023-01-02T04:10:30.491Z,13.99
2023-01-02T04:13:01.899Z,14.08
2023-01-02T04:15:32.373Z,14.04
2023-01-02T04:18:11.851Z,14.00
2023-01-02T04:20:41.782Z,14.01
2023-01-02T04:23:15.789Z,13.95
2023-01-02T04:25:49.551Z,13.87
2023-01-02T04:28:21.106Z,13.98
2023-01-02T04:30:52.584Z,13.94
2023-01-02T04:33:19.901Z,13.96
2023-01-02T04:35:46.489Z,14.02
2023-01-02T04:38:13.107Z,14.08
2023-01-02T04:40:39.808Z,14.04
2023-01-02T04:43:08.465Z,14.13
2023-01-02T04:45:35.191Z,14.06
2023-01-02T04:48:01.844Z,13.97
2023-01-02T04:50:28.364Z,14.11
2023-01-02T04:52:54.910Z,14.11
2023-01-02T04:55:21.483Z,14.12
2023-01-02T04:57:48.153Z,14.09
2023-01-02T05:00:15.542Z,13.99
2023-01-02T05:02:42.271Z,14.10
2023-01-02T05:05:09.276Z,14.17
2023-01-02T05:07:37.039Z,14.19
2023-01-02T05:10:04.294Z,14.13
2023-01-02T05:12:34.413Z,14.17
2023-01-02T05:15:01.297Z,14.05
2023-01-02T05:17:27.873Z,14.13
2023-01-02T05:19:54.415Z,14.12
2023-01-02T05:22:39.284Z,14.20
2023-01-02T05:25:06.297Z,14.25
2023-01-02T05:27:33.347Z,14.27
2023-01-02T05:29:59.905Z,14.27
2023-01-02T05:32:27.714Z,14.28
2023-01-02T05:34:54.221Z,14.24
2023-01-02T05:37:20.772Z,14.27
2023-01-02T05:39:47.272Z,14.27
2023-01-02T05:42:13.811Z,14.26
2023-01-02T05:44:40.361Z,14.24
2023-01-02T05:47:07.797Z,14.28
2023-01-02T05:49:36.872Z,14.23
2023-01-02T05:52:03.740Z,14.14
2023-01-02T05:54:30.514Z,14.14
2023-01-02T05:56:57.082Z,14.19
2023-01-02T05:59:23.931Z,14.21
2023-01-02T06:01:50.625Z,14.34
2023-01-02T06:04:19.841Z,14.35
2023-01-02T06:06:47.205Z,14.42
2023-01-02T06:09:14.757Z,14.40
2023-01-02T06:11:41.439Z,14.44
2023-01-02T06:14:10.579Z,14.46
2023-01-02T06:16:38.323Z,14.46
2023-01-02T06:19:05.784Z,14.49
2023-01-02T06:21:32.694Z,14.50
2023-01-02T06:23:59.300Z,14.52
2023-01-02T06:26:32.742Z,14.56
2023-01-02T06:29:01.550Z,14.57
2023-01-02T06:31:29.616Z,14.57
2023-01-02T06:34:01.120Z,14.56
2023-01-02T06:36:30.767Z,14.52
2023-01-02T06:38:57.708Z,14.62
2023-01-02T06:41:24.425Z,14.66
2023-01-02T06:43:52.879Z,14.58
2023-01-02T06:46:21.427Z,14.67
2023-01-02T06:48:48.309Z,14.67
2023-01-02T06:51:18.596Z,14.56
2023-01-02T06:53:45.447Z,14.69
2023-01-02T06:56:13.996Z,14.76
2023-01-02T06:58:40.651Z,14.77
2023-01-02T07:01:09.648Z,14.80
2023-01-02T07:03:36.628Z,14.82
2023-01-02T07:06:07.074Z,14.76
2023-01-02T07:08:33.946Z,14.80
2023-01-02T07:11:10.262Z,14.84
2023-01-02T07:13:37.420Z,14.84
2023-01-02T07:16:05.569Z,14.86
2023-01-02T07:18:32.428Z,14.80
2023-01-02T07:20:59.130Z,14.86
2023-01-02T07:23:26.160Z,14.87
2023-01-02T07:25:54.326Z,14.87
2023-01-02T07:28:20.950Z,14.87
2023-01-02T07:30:47.771Z,14.91
2023-01-02T07:33:14.371Z,14.85
2023-01-02T07:35:41.239Z,14.90
2023-01-02T07:38:07.862Z,14.90
2023-01-02T07:40:34.417Z,14.88
2023-01-02T07:43:00.931Z,14.90
2023-01-02T07:45:27.486Z,14.89
2023-01-02T07:47:54.065Z,14.85
2023-01-02T07:50:20.569Z,14.89
2023-01-02T07:52:47.121Z,14.88
2023-01-02T07:55:14.069Z,14.96
2023-01-02T07:57:40.991Z,14.98
2023-01-02T08:00:08.042Z,14.97
2023-01-02T08:02:38.733Z,14.76
2023-01-02T08:05:05.610Z,14.90
2023-01-02T08:07:32.203Z,14.93
2023-01-02T08:09:58.723Z,14.99
2023-01-02T08:12:25.303Z,15.03
2023-01-02T08:14:51.820Z,15.04
2023-01-02T08:17:18.387Z,15.13
2023-01-02T08:19:45.047Z,15.15
2023-01-02T08:22:11.609Z,15.19
2023-01-02T08:24:38.144Z,15.17
2023-01-02T08:27:04.684Z,15.22
2023-01-02T08:29:31.332Z,15.31
2023-01-02T08:31:59.253Z,15.31
2023-01-02T08:34:26.081Z,15.26
2023-01-02T08:36:53.817Z,15.34
2023-01-02T08:39:20.395Z,15.30
2023-01-02T08:41:46.984Z,15.40
2023-01-02T08:44:13.582Z,15.47
2023-01-02T08:46:42.858Z,15.44
2023-01-02T08:49:10.879Z,15.42
2023-01-02T08:51:37.484Z,15.42
2023-01-02T08:54:07.567Z,15.47
2023-01-02T08:56:35.367Z,15.37
2023-01-02T08:59:10.580Z,15.35
2023-01-02T09:01:37.684Z,15.48
2023-01-02T09:04:11.604Z,15.46
2023-01-02T09:06:39.513Z,15.39
2023-01-02T09:09:11.645Z,15.51
2023-01-02T09:11:43.533Z,15.50
2023-01-02T09:14:10.022Z,15.50
2023-01-02T09:16:36.579Z,15.65
2023-01-02T09:19:05.191Z,15.70
2023-01-02T09:21:31.830Z,15.71
2023-01-02T09:23:58.409Z,15.68
2023-01-02T09:26:25.492Z,15.68
2023-01-02T09:28:52.351Z,15.72
2023-01-02T09:31:19.613Z,15.82
2023-01-02T09:33:48.142Z,15.83
2023-01-02T09:36:17.146Z,15.89
2023-01-02T09:38:43.997Z,15.95
2023-01-02T09:41:25.866Z,15.96
2023-01-02T09:43:56.770Z,16.01
2023-01-02T09:46:31.807Z,15.97
2023-01-02T09:49:00.370Z,16.01
2023-01-02T09:51:27.401Z,16.05
2023-01-02T09:53:54.146Z,16.06
2023-01-02T09:56:33.948Z,16.16
2023-01-02T09:59:33.305Z,16.06
2023-01-02T10:02:06.074Z,16.16
2023-01-02T10:04:59.388Z,16.22
2023-01-02T10:08:03.891Z,16.23
2023-01-02T10:10:38.738Z,16.14
2023-01-02T10:13:59.899Z,16.20
2023-01-02T10:16:21.431Z,16.21
2023-01-02T10:18:51.813Z,16.27
2023-01-02T10:21:25.571Z,16.23
2023-01-02T10:24:05.642Z,16.29
2023-01-02T10:26:37.184Z,16.35
2023-01-02T10:29:11.807Z,16.23
2023-01-02T10:31:42.330Z,16.33
2023-01-02T10:34:18.951Z,16.31
2023-01-02T10:36:46.508Z,16.37
2023-01-02T10:39:16.610Z,16.37
2023-01-02T10:41:47.825Z,16.22
2023-01-02T10:44:28.450Z,16.36
2023-01-02T10:46:55.697Z,16.41
2023-01-02T10:49:23.784Z,16.35
2023-01-02T10:52:19.545Z,16.08
2023-01-02T10:54:59.461Z,16.14
2023-01-02T10:57:47.384Z,16.11
2023-01-02T11:00:25.658Z,16.19
2023-01-02T11:02:57.204Z,16.29
2023-01-02T11:05:26.341Z,16.31
2023-01-02T11:07:53.373Z,16.21
2023-01-02T11:10:32.421Z,16.23
2023-01-02T11:13:03.474Z,16.20
2023-01-02T11:15:34.376Z,16.15
2023-01-02T11:18:01.057Z,15.83
2023-01-02T11:20:30.227Z,15.89
2023-01-02T11:22:59.370Z,15.77
2023-01-02T11:25:28.372Z,15.72
2023-01-02T11:28:01.735Z,15.62
2023-01-02T11:30:43.972Z,15.61
2023-01-02T11:33:13.436Z,15.63
2023-01-02T11:35:46.328Z,15.68
2023-01-02T11:38:28.970Z,15.71
2023-01-02T11:41:01.809Z,15.69
2023-01-02T11:43:49.063Z,15.63
2023-01-02T11:46:37.000Z,15.67
2023-01-02T11:49:06.910Z,15.79
2023-01-02T11:51:35.291Z,15.79
2023-01-02T11:54:04.826Z,15.85
2023-01-02T11:56:36.262Z,15.84
2023-01-02T11:59:16.501Z,15.78
2023-01-02T12:01:55.310Z,15.80
2023-01-02T12:04:23.507Z,15.85
2023-01-02T12:07:02.171Z,15.61
2023-01-02T12:09:56.416Z,15.23
2023-01-02T12:12:35.908Z,15.32
2023-01-02T12:15:08.636Z,15.43
2023-01-02T12:17:54.407Z,15.44
2023-01-02T12:20:26.450Z,15.45
2023-01-02T12:22:59.162Z,15.41
2023-01-02T12:25:45.727Z,15.46
2023-01-02T12:28:17.694Z,15.05
2023-01-02T12:30:55.301Z,14.93
2023-01-02T12:33:54.747Z,15.11
2023-01-02T12:36:33.120Z,15.17
2023-01-02T12:39:30.887Z,15.31
2023-01-02T12:42:14.248Z,15.44
2023-01-02T12:44:49.102Z,15.41
2023-01-02T12:47:24.253Z,15.42
2023-01-02T12:50:03.791Z,15.39
2023-01-02T12:52:36.496Z,15.22
2023-01-02T12:55:24.796Z,15.10
2023-01-02T12:58:14.958Z,15.05
2023-01-02T13:01:03.836Z,15.01
2023-01-02T13:03:46.027Z,15.03
2023-01-02T13:06:44.347Z,14.95
2023-01-02T13:09:40.036Z,14.95
2023-01-02T13:12:14.420Z,15.03
2023-01-02T13:15:01.071Z,15.05
2023-01-02T13:17:35.886Z,15.09
2023-01-02T13:20:36.041Z,15.15
2023-01-02T13:23:20.869Z,15.17
2023-01-02T13:25:50.743Z,15.26
2023-01-02T13:28:18.648Z,15.30
2023-01-02T13:31:44.174Z,15.31
2023-01-02T13:33:53.413Z,15.34
2023-01-02T13:36:24.170Z,15.32
2023-01-02T13:38:54.903Z,15.35
2023-01-02T13:41:22.120Z,15.29
2023-01-02T13:43:56.944Z,15.26
2023-01-02T13:49:19.848Z,15.39
2023-01-02T13:51:46.771Z,15.35
2023-01-02T13:54:20.545Z,15.41
2023-01-02T13:57:17.196Z,15.40
2023-01-02T14:00:00.858Z,15.48
2023-01-02T14:02:27.631Z,15.49
2023-01-02T14:04:54.495Z,15.50
2023-01-02T14:07:27.541Z,15.50
2023-01-02T14:10:09.116Z,15.50
2023-01-02T14:12:55.640Z,15.57
2023-01-02T14:15:24.687Z,15.57
2023-01-02T14:17:51.182Z,15.57
2023-01-02T14:20:22.853Z,15.58
2023-01-02T14:23:04.357Z,15.63
2023-01-02T14:25:32.080Z,15.58
2023-01-02T14:28:03.946Z,15.57
2023-01-02T14:30:31.585Z,15.59
2023-01-02T14:32:59.504Z,15.64
2023-01-02T14:35:33.942Z,15.57
2023-01-02T14:38:30.945Z,15.48
2023-01-02T14:41:17.505Z,15.60
2023-01-02T14:43:44.567Z,15.59
2023-01-02T14:46:19.881Z,15.58
2023-01-02T14:49:24.803Z,15.57
2023-01-02T14:52:01.888Z,15.60
2023-01-02T14:55:01.154Z,15.59
2023-01-02T14:57:31.681Z,15.67
2023-01-02T15:00:01.340Z,15.68
2023-01-02T15:02:31.118Z,15.65
2023-01-02T15:05:06.189Z,15.69
2023-01-02T15:07:36.928Z,15.71
2023-01-02T15:10:07.176Z,15.73
2023-01-02T15:13:02.081Z,15.66
2023-01-02T15:15:30.748Z,15.65
2023-01-02T15:18:02.945Z,15.69
2023-01-02T15:20:31.148Z,15.71
2023-01-02T15:22:58.975Z,15.73
2023-01-02T15:25:41.504Z,15.58
2023-01-02T15:28:31.974Z,15.63
2023-01-02T15:30:59.675Z,15.53
2023-01-02T15:33:30.322Z,15.48
2023-01-02T15:36:00.699Z,15.43
2023-01-02T15:38:27.282Z,15.39
2023-01-02T15:40:55.478Z,15.40
2023-01-02T15:43:40.663Z,15.40
2023-01-02T15:46:07.451Z,15.37
2023-01-02T15:48:34.372Z,15.37
2023-01-02T15:51:01.271Z,15.36
2023-01-02T15:53:28.786Z,15.26
2023-01-02T15:55:56.136Z,15.22
2023-01-02T15:58:30.917Z,15.17
2023-01-02T16:01:21.096Z,14.95
2023-01-02T16:04:01.175Z,14.99
2023-01-02T16:06:40.933Z,14.93
2023-01-02T16:09:18.054Z,14.88
2023-01-02T16:11:47.427Z,14.78
2023-01-02T16:14:19.775Z,14.81
2023-01-02T16:16:50.801Z,14.73
2023-01-02T16:19:37.616Z,14.51
2023-01-02T16:22:10.085Z,14.62
2023-01-02T16:24:45.871Z,14.60
2023-01-02T16:27:14.116Z,14.51
2023-01-02T16:29:42.731Z,14.46
2023-01-02T16:32:27.695Z,14.39
2023-01-02T16:35:23.486Z,14.33
2023-01-02T16:38:18.781Z,14.22
2023-01-02T16:40:59.871Z,14.27
2023-01-02T16:43:30.950Z,14.26
2023-01-02T16:45:58.339Z,14.23
2023-01-02T16:48:28.244Z,14.12
2023-01-02T16:50:56.205Z,14.00
2023-01-02T16:53:29.080Z,13.98
2023-01-02T16:55:58.803Z,13.89
2023-01-02T16:58:25.510Z,13.89
2023-01-02T17:00:53.899Z,13.82
2023-01-02T17:03:25.959Z,13.69
2023-01-02T17:06:01.562Z,13.69
2023-01-02T17:08:31.253Z,13.58
2023-01-02T17:10:58.881Z,13.41
2023-01-02T17:13:26.062Z,13.31
2023-01-02T17:15:52.667Z,13.35
2023-01-02T17:18:19.235Z,13.29
2023-01-02T17:20:45.774Z,13.33
2023-01-02T17:23:12.266Z,13.32
2023-01-02T17:25:40.954Z,13.32
2023-01-02T17:28:07.614Z,13.13
2023-01-02T17:30:34.176Z,13.16
2023-01-02T17:33:04.229Z,13.17
2023-01-02T17:35:31.238Z,13.11
2023-01-02T17:37:57.768Z,13.05
2023-01-02T17:40:27.251Z,13.06
2023-01-02T17:42:54.038Z,13.04
2023-01-02T17:45:20.699Z,12.93
2023-01-02T17:48:01.300Z,12.93
2023-01-02T17:50:31.402Z,12.89
2023-01-02T17:52:58.208Z,12.84
2023-01-02T17:55:24.796Z,12.82
2023-01-02T17:57:51.356Z,12.87
2023-01-02T18:00:18.347Z,12.85
2023-01-02T18:02:45.164Z,12.86
2023-01-02T18:05:11.811Z,12.81
2023-01-02T18:07:38.685Z,12.75
2023-01-02T18:10:08.519Z,12.71
2023-01-02T18:12:37.928Z,12.78
2023-01-02T18:15:12.503Z,12.71
2023-01-02T18:17:39.095Z,12.70
2023-01-02T18:20:10.153Z,12.71
2023-01-02T18:22:36.620Z,12.46
2023-01-02T18:25:17.452Z,12.50
2023-01-02T18:27:45.224Z,12.49
2023-01-02T18:30:17.238Z,12.59
2023-01-02T18:32:44.470Z,12.62
2023-01-02T18:35:55.369Z,12.55
2023-01-02T18:38:19.254Z,12.50
2023-01-02T18:40:46.305Z,12.44
2023-01-02T18:43:20.802Z,12.52
2023-01-02T18:45:52.108Z,12.45
2023-01-02T18:48:19.650Z,12.54
2023-01-02T18:50:54.178Z,12.56
2023-01-02T18:53:23.479Z,12.59
2023-01-02T18:55:50.992Z,12.63
2023-01-02T18:58:30.084Z,12.64
2023-01-02T19:00:56.689Z,12.65
2023-01-02T19:03:26.104Z,12.63
2023-01-02T19:05:53.190Z,12.65
2023-01-02T19:08:23.030Z,12.68
2023-01-02T19:10:55.495Z,12.64
2023-01-02T19:13:30.859Z,12.62
2023-01-02T19:16:10.545Z,12.49
2023-01-02T19:18:39.783Z,12.40
2023-01-02T19:21:09.355Z,12.40
2023-01-02T19:24:05.870Z,12.38
2023-01-02T19:26:41.129Z,12.29
2023-01-02T19:29:15.353Z,12.30
2023-01-02T19:31:52.461Z,12.27
2023-01-02T19:34:26.206Z,12.25
2023-01-02T19:37:11.032Z,12.16
2023-01-02T19:39:49.776Z,12.10
2023-01-02T19:42:19.735Z,12.04
2023-01-02T19:44:57.103Z,12.09
2023-01-02T19:47:29.488Z,12.05
2023-01-02T19:49:56.417Z,12.02
2023-01-02T19:52:23.916Z,12.04
2023-01-02T19:54:52.290Z,12.09
2023-01-02T19:57:19.729Z,12.05
2023-01-02T19:59:47.651Z,12.08
2023-01-02T20:02:16.000Z,12.01
2023-01-02T20:04:43.280Z,11.99
2023-01-02T20:07:10.533Z,11.94
2023-01-02T20:09:37.175Z,11.92
2023-01-02T20:12:22.520Z,11.92
2023-01-02T20:14:49.041Z,11.94
2023-01-02T20:17:15.582Z,11.93
2023-01-02T20:19:42.239Z,11.90
2023-01-02T20:22:08.797Z,11.84
2023-01-02T20:24:35.602Z,11.87
2023-01-02T20:27:03.586Z,11.79
2023-01-02T20:29:30.643Z,11.72
2023-01-02T20:31:59.089Z,11.63
2023-01-02T20:34:25.716Z,11.64
2023-01-02T20:36:52.292Z,11.63
2023-01-02T20:39:18.829Z,11.67
2023-01-02T20:41:45.532Z,11.65
2023-01-02T20:44:13.483Z,11.66
2023-01-02T20:46:40.213Z,11.67
2023-01-02T20:49:07.702Z,11.68
2023-01-02T20:51:35.347Z,11.62
2023-01-02T20:54:02.697Z,11.54
2023-01-02T20:56:30.017Z,11.57
2023-01-02T20:58:56.947Z,11.54
2023-01-02T21:01:24.074Z,11.53
2023-01-02T21:03:50.865Z,11.55
2023-01-02T21:06:17.553Z,11.56
2023-01-02T21:08:44.060Z,11.54
2023-01-02T21:11:11.102Z,11.54
2023-01-02T21:13:37.915Z,11.45
2023-01-02T21:16:04.578Z,11.40
2023-01-02T21:18:33.687Z,11.45
2023-01-02T21:21:05.587Z,11.46
2023-01-02T21:23:33.895Z,11.50
2023-01-02T21:26:00.472Z,11.49
2023-01-02T21:28:27.093Z,11.45
2023-01-02T21:30:54.122Z,11.45
2023-01-02T21:33:22.285Z,11.40
2023-01-02T21:35:50.136Z,11.37
2023-01-02T21:38:18.587Z,11.36
2023-01-02T21:40:45.253Z,11.30
2023-01-02T21:43:11.999Z,11.21
2023-01-02T21:45:38.585Z,11.22
2023-01-02T21:48:05.469Z,11.19
2023-01-02T21:50:31.988Z,11.20
2023-01-02T21:52:58.549Z,11.18
2023-01-02T21:55:25.645Z,11.18
2023-01-02T22:00:41.137Z,11.09
2023-01-02T22:03:07.815Z,11.10
2023-01-02T22:05:34.465Z,11.11
2023-01-02T22:08:01.218Z,11.10
2023-01-02T22:10:27.770Z,11.12
2023-01-02T22:12:54.874Z,11.14
2023-01-02T22:15:21.426Z,11.11
2023-01-02T22:17:47.962Z,11.11
2023-01-02T22:20:14.972Z,11.11
2023-01-02T22:22:41.603Z,11.15
2023-01-02T22:25:09.115Z,11.17
2023-01-02T22:27:35.855Z,11.16
2023-01-02T22:30:23.014Z,11.11
2023-01-02T22:32:49.922Z,11.03
2023-01-02T22:35:16.708Z,11.04
2023-01-02T22:37:43.309Z,11.00
2023-01-02T22:40:10.411Z,10.97
2023-01-02T22:43:04.824Z,11.00
2023-01-02T22:45:47.453Z,10.92
2023-01-02T22:48:18.251Z,10.91
2023-01-02T22:50:45.870Z,10.89
2023-01-02T22:53:27.537Z,10.82
2023-01-02T22:55:54.153Z,10.79
2023-01-02T22:58:21.222Z,10.80
2023-01-02T23:00:54.766Z,10.78
2023-01-02T23:03:21.564Z,10.66
2023-01-02T23:05:48.123Z,10.63
2023-01-02T23:08:14.870Z,10.58
2023-01-02T23:10:41.922Z,10.62
2023-01-02T23:13:08.498Z,10.60
2023-01-02T23:15:35.159Z,10.58
2023-01-02T23:18:20.376Z,10.60
2023-01-02T23:20:46.897Z,10.59
2023-01-02T23:23:13.465Z,10.51
2023-01-02T23:25:42.324Z,10.51
2023-01-02T23:28:08.928Z,10.52
2023-01-02T23:30:35.472Z,10.47
2023-01-02T23:33:02.008Z,10.52
2023-01-02T23:35:28.536Z,10.39
2023-01-02T23:37:55.154Z,10.41
2023-01-02T23:40:21.670Z,10.41
2023-01-02T23:42:48.283Z,10.41
2023-01-02T23:45:14.859Z,10.36
2023-01-02T23:47:41.385Z,10.39
2023-01-02T23:50:08.153Z,10.42
2023-01-02T23:52:34.679Z,10.41
2023-01-02T23:55:01.190Z,10.45
2023-01-02T23:57:28.104Z,10.50
2023-01-02T23:59:54.641Z,10.31
